sensor_id;sensor_type;location;lat;lon;timestamp;P1;durP1;ratioP1;P2;durP2;ratioP2
66603;SDS011;53460;39.612;8.822;2024-03-23T00:56:04;3.60;;;2.85;;
66603;SDS011;53460;39.612;8.822;2024-03-23T00:58:30;6.72;;;3.20;;
66603;SDS011;53460;39.612;8.822;2024-03-23T01:00:55;4.47;;;2.92;;
66603;SDS011;53460;39.612;8.822;2024-03-23T01:03:21;6.55;;;3.03;;
66603;SDS011;53460;39.612;8.822;2024-03-23T01:05:47;7.05;;;3.17;;
66603;SDS011;53460;39.612;8.822;2024-03-23T01:08:14;5.82;;;3.00;;
66603;SDS011;53460;39.612;8.822;2024-03-23T01:10:40;5.00;;;3.28;;
66603;SDS011;53460;39.612;8.822;2024-03-23T01:13:05;5.60;;;3.53;;
66603;SDS011;53460;39.612;8.822;2024-03-23T01:15:31;5.53;;;3.67;;
66603;SDS011;53460;39.612;8.822;2024-03-23T01:17:57;6.93;;;4.10;;
66603;SDS011;53460;39.612;8.822;2024-03-23T01:20:23;4.78;;;3.83;;
66603;SDS011;53460;39.612;8.822;2024-03-23T01:22:48;5.15;;;4.60;;
66603;SDS011;53460;39.612;8.822;2024-03-23T01:25:14;4.68;;;3.97;;
66603;SDS011;53460;39.612;8.822;2024-03-23T01:27:39;4.70;;;3.72;;
66603;SDS011;53460;39.612;8.822;2024-03-23T01:30:05;6.65;;;3.65;;
66603;SDS011;53460;39.612;8.822;2024-03-23T01:32:32;6.05;;;4.00;;
66603;SDS011;53460;39.612;8.822;2024-03-23T01:34:58;6.45;;;3.67;;
66603;SDS011;53460;39.612;8.822;2024-03-23T01:37:23;5.07;;;4.07;;
66603;SDS011;53460;39.612;8.822;2024-03-23T01:39:49;5.35;;;4.10;;
66603;SDS011;53460;39.612;8.822;2024-03-23T01:42:15;4.97;;;3.78;;
66603;SDS011;53460;39.612;8.822;2024-03-23T01:44:40;4.13;;;3.67;;
66603;SDS011;53460;39.612;8.822;2024-03-23T01:47:06;6.18;;;4.25;;
66603;SDS011;53460;39.612;8.822;2024-03-23T01:49:32;5.88;;;3.70;;
66603;SDS011;53460;39.612;8.822;2024-03-23T01:51:58;4.47;;;3.55;;
66603;SDS011;53460;39.612;8.822;2024-03-23T01:54:25;7.40;;;3.40;;
66603;SDS011;53460;39.612;8.822;2024-03-23T01:56:51;12.20;;;3.63;;
66603;SDS011;53460;39.612;8.822;2024-03-23T01:59:17;16.33;;;3.55;;
66603;SDS011;53460;39.612;8.822;2024-03-23T02:01:42;4.68;;;3.83;;
66603;SDS011;53460;39.612;8.822;2024-03-23T02:04:08;5.05;;;3.10;;
66603;SDS011;53460;39.612;8.822;2024-03-23T02:06:35;4.18;;;2.60;;
66603;SDS011;53460;39.612;8.822;2024-03-23T02:09:00;3.97;;;3.00;;
66603;SDS011;53460;39.612;8.822;2024-03-23T02:11:26;3.97;;;2.30;;
66603;SDS011;53460;39.612;8.822;2024-03-23T02:13:52;3.38;;;2.40;;
66603;SDS011;53460;39.612;8.822;2024-03-23T02:16:18;3.97;;;2.67;;
66603;SDS011;53460;39.612;8.822;2024-03-23T02:18:44;7.93;;;3.33;;
66603;SDS011;53460;39.612;8.822;2024-03-23T02:21:09;4.88;;;2.72;;
66603;SDS011;53460;39.612;8.822;2024-03-23T02:23:35;4.60;;;2.85;;
66603;SDS011;53460;39.612;8.822;2024-03-23T02:26:01;7.45;;;3.55;;
66603;SDS011;53460;39.612;8.822;2024-03-23T02:28:26;5.32;;;3.10;;
66603;SDS011;53460;39.612;8.822;2024-03-23T02:30:52;3.50;;;3.20;;
66603;SDS011;53460;39.612;8.822;2024-03-23T02:33:18;6.03;;;3.05;;
66603;SDS011;53460;39.612;8.822;2024-03-23T02:35:44;5.25;;;2.85;;
66603;SDS011;53460;39.612;8.822;2024-03-23T02:38:10;4.22;;;2.80;;
66603;SDS011;53460;39.612;8.822;2024-03-23T02:40:36;4.07;;;2.80;;
66603;SDS011;53460;39.612;8.822;2024-03-23T02:43:04;5.90;;;3.17;;
66603;SDS011;53460;39.612;8.822;2024-03-23T02:45:30;6.15;;;3.25;;
66603;SDS011;53460;39.612;8.822;2024-03-23T02:47:56;4.70;;;2.90;;
66603;SDS011;53460;39.612;8.822;2024-03-23T02:50:22;9.90;;;2.80;;
66603;SDS011;53460;39.612;8.822;2024-03-23T02:52:48;3.55;;;2.35;;
66603;SDS011;53460;39.612;8.822;2024-03-23T02:55:14;3.05;;;2.30;;
66603;SDS011;53460;39.612;8.822;2024-03-23T02:57:40;6.38;;;2.70;;
66603;SDS011;53460;39.612;8.822;2024-03-23T03:00:06;3.03;;;2.40;;
66603;SDS011;53460;39.612;8.822;2024-03-23T03:02:33;6.03;;;2.55;;
66603;SDS011;53460;39.612;8.822;2024-03-23T03:04:58;5.43;;;2.83;;
66603;SDS011;53460;39.612;8.822;2024-03-23T03:07:24;4.93;;;3.15;;
66603;SDS011;53460;39.612;8.822;2024-03-23T03:09:50;5.53;;;2.60;;
66603;SDS011;53460;39.612;8.822;2024-03-23T03:12:16;3.33;;;2.63;;
66603;SDS011;53460;39.612;8.822;2024-03-23T03:14:42;4.75;;;2.90;;
66603;SDS011;53460;39.612;8.822;2024-03-23T03:17:07;4.75;;;2.50;;
66603;SDS011;53460;39.612;8.822;2024-03-23T03:19:33;8.02;;;2.65;;
66603;SDS011;53460;39.612;8.822;2024-03-23T03:21:59;5.47;;;2.63;;
66603;SDS011;53460;39.612;8.822;2024-03-23T03:24:24;3.25;;;2.60;;
66603;SDS011;53460;39.612;8.822;2024-03-23T03:26:50;3.92;;;2.67;;
66603;SDS011;53460;39.612;8.822;2024-03-23T03:29:16;2.80;;;2.60;;
66603;SDS011;53460;39.612;8.822;2024-03-23T03:31:42;6.07;;;2.88;;
66603;SDS011;53460;39.612;8.822;2024-03-23T03:34:08;4.63;;;2.70;;
66603;SDS011;53460;39.612;8.822;2024-03-23T03:36:34;4.43;;;2.70;;
66603;SDS011;53460;39.612;8.822;2024-03-23T03:38:59;7.90;;;2.58;;
66603;SDS011;53460;39.612;8.822;2024-03-23T03:41:25;4.28;;;2.65;;
66603;SDS011;53460;39.612;8.822;2024-03-23T03:43:51;4.88;;;2.85;;
66603;SDS011;53460;39.612;8.822;2024-03-23T03:46:16;5.93;;;2.47;;
66603;SDS011;53460;39.612;8.822;2024-03-23T03:48:42;3.28;;;2.50;;
66603;SDS011;53460;39.612;8.822;2024-03-23T03:51:10;4.82;;;2.58;;
66603;SDS011;53460;39.612;8.822;2024-03-23T03:53:37;4.40;;;2.97;;
66603;SDS011;53460;39.612;8.822;2024-03-23T03:56:03;5.72;;;2.88;;
66603;SDS011;53460;39.612;8.822;2024-03-23T03:58:28;4.47;;;2.65;;
66603;SDS011;53460;39.612;8.822;2024-03-23T04:00:54;8.27;;;2.92;;
66603;SDS011;53460;39.612;8.822;2024-03-23T04:03:20;4.82;;;2.83;;
66603;SDS011;53460;39.612;8.822;2024-03-23T04:05:52;5.30;;;2.30;;
66603;SDS011;53460;39.612;8.822;2024-03-23T04:08:19;3.65;;;2.22;;
66603;SDS011;53460;39.612;8.822;2024-03-23T04:10:45;4.55;;;2.55;;
66603;SDS011;53460;39.612;8.822;2024-03-23T04:13:11;8.32;;;2.58;;
66603;SDS011;53460;39.612;8.822;2024-03-23T04:15:37;3.38;;;2.60;;
66603;SDS011;53460;39.612;8.822;2024-03-23T04:18:03;4.57;;;2.97;;
66603;SDS011;53460;39.612;8.822;2024-03-23T04:20:29;4.88;;;2.65;;
66603;SDS011;53460;39.612;8.822;2024-03-23T04:22:55;4.13;;;2.78;;
66603;SDS011;53460;39.612;8.822;2024-03-23T04:25:20;3.80;;;2.30;;
66603;SDS011;53460;39.612;8.822;2024-03-23T04:27:46;3.78;;;2.45;;
66603;SDS011;53460;39.612;8.822;2024-03-23T04:30:12;2.50;;;2.03;;
66603;SDS011;53460;39.612;8.822;2024-03-23T04:32:38;3.30;;;2.55;;
66603;SDS011;53460;39.612;8.822;2024-03-23T04:35:04;5.05;;;2.33;;
66603;SDS011;53460;39.612;8.822;2024-03-23T04:37:37;2.40;;;1.98;;
66603;SDS011;53460;39.612;8.822;2024-03-23T04:40:06;4.70;;;2.65;;
66603;SDS011;53460;39.612;8.822;2024-03-23T04:42:32;6.28;;;3.00;;
66603;SDS011;53460;39.612;8.822;2024-03-23T04:44:59;2.78;;;2.33;;
66603;SDS011;53460;39.612;8.822;2024-03-23T04:47:24;3.00;;;2.60;;
66603;SDS011;53460;39.612;8.822;2024-03-23T04:49:51;4.35;;;3.17;;
66603;SDS011;53460;39.612;8.822;2024-03-23T04:52:17;4.88;;;3.42;;
66603;SDS011;53460;39.612;8.822;2024-03-23T04:54:44;7.55;;;3.50;;
66603;SDS011;53460;39.612;8.822;2024-03-23T04:57:10;4.95;;;3.65;;
66603;SDS011;53460;39.612;8.822;2024-03-23T04:59:36;4.70;;;3.60;;
66603;SDS011;53460;39.612;8.822;2024-03-23T05:02:02;4.05;;;3.40;;
66603;SDS011;53460;39.612;8.822;2024-03-23T05:04:28;6.80;;;4.10;;
66603;SDS011;53460;39.612;8.822;2024-03-23T05:06:54;4.03;;;3.00;;
66603;SDS011;53460;39.612;8.822;2024-03-23T05:09:19;5.13;;;2.90;;
66603;SDS011;53460;39.612;8.822;2024-03-23T05:11:45;4.38;;;3.05;;
66603;SDS011;53460;39.612;8.822;2024-03-23T05:14:14;4.25;;;3.85;;
66603;SDS011;53460;39.612;8.822;2024-03-23T05:16:40;4.30;;;3.40;;
66603;SDS011;53460;39.612;8.822;2024-03-23T05:19:06;5.43;;;3.45;;
66603;SDS011;53460;39.612;8.822;2024-03-23T05:21:31;5.35;;;3.58;;
66603;SDS011;53460;39.612;8.822;2024-03-23T05:23:57;5.57;;;3.30;;
66603;SDS011;53460;39.612;8.822;2024-03-23T05:26:23;7.35;;;3.78;;
66603;SDS011;53460;39.612;8.822;2024-03-23T05:28:48;4.68;;;3.75;;
66603;SDS011;53460;39.612;8.822;2024-03-23T05:31:24;5.93;;;2.85;;
66603;SDS011;53460;39.612;8.822;2024-03-23T05:33:50;3.67;;;2.92;;
66603;SDS011;53460;39.612;8.822;2024-03-23T05:36:17;5.57;;;3.42;;
66603;SDS011;53460;39.612;8.822;2024-03-23T05:38:43;5.20;;;3.15;;
66603;SDS011;53460;39.612;8.822;2024-03-23T05:41:08;3.90;;;3.20;;
66603;SDS011;53460;39.612;8.822;2024-03-23T05:43:34;3.38;;;2.85;;
66603;SDS011;53460;39.612;8.822;2024-03-23T05:46:00;2.90;;;2.53;;
66603;SDS011;53460;39.612;8.822;2024-03-23T05:48:29;4.43;;;3.10;;
66603;SDS011;53460;39.612;8.822;2024-03-23T05:50:56;7.72;;;3.20;;
66603;SDS011;53460;39.612;8.822;2024-03-23T05:53:22;4.28;;;3.15;;
66603;SDS011;53460;39.612;8.822;2024-03-23T05:55:49;6.95;;;3.10;;
66603;SDS011;53460;39.612;8.822;2024-03-23T05:58:18;3.22;;;2.58;;
66603;SDS011;53460;39.612;8.822;2024-03-23T06:00:44;8.85;;;2.83;;
66603;SDS011;53460;39.612;8.822;2024-03-23T06:03:09;3.72;;;3.20;;
66603;SDS011;53460;39.612;8.822;2024-03-23T06:05:38;4.20;;;3.28;;
66603;SDS011;53460;39.612;8.822;2024-03-23T06:08:04;4.82;;;3.75;;
66603;SDS011;53460;39.612;8.822;2024-03-23T06:10:30;7.05;;;3.05;;
66603;SDS011;53460;39.612;8.822;2024-03-23T06:12:59;5.30;;;3.17;;
66603;SDS011;53460;39.612;8.822;2024-03-23T06:15:25;5.18;;;3.40;;
66603;SDS011;53460;39.612;8.822;2024-03-23T06:17:52;3.38;;;3.00;;
66603;SDS011;53460;39.612;8.822;2024-03-23T06:20:18;5.75;;;2.65;;
66603;SDS011;53460;39.612;8.822;2024-03-23T06:22:43;6.78;;;3.13;;
66603;SDS011;53460;39.612;8.822;2024-03-23T06:25:09;4.28;;;2.90;;
66603;SDS011;53460;39.612;8.822;2024-03-23T06:27:35;6.63;;;3.00;;
66603;SDS011;53460;39.612;8.822;2024-03-23T06:30:00;3.53;;;2.75;;
66603;SDS011;53460;39.612;8.822;2024-03-23T06:32:27;16.88;;;3.08;;
66603;SDS011;53460;39.612;8.822;2024-03-23T06:34:54;4.03;;;2.92;;
66603;SDS011;53460;39.612;8.822;2024-03-23T06:37:20;5.78;;;2.40;;
66603;SDS011;53460;39.612;8.822;2024-03-23T06:39:46;4.13;;;2.40;;
66603;SDS011;53460;39.612;8.822;2024-03-23T06:42:12;9.30;;;2.08;;
66603;SDS011;53460;39.612;8.822;2024-03-23T06:44:38;3.83;;;2.15;;
66603;SDS011;53460;39.612;8.822;2024-03-23T06:47:04;3.85;;;1.92;;
66603;SDS011;53460;39.612;8.822;2024-03-23T06:49:30;3.60;;;2.40;;
66603;SDS011;53460;39.612;8.822;2024-03-23T06:51:56;2.35;;;1.85;;
66603;SDS011;53460;39.612;8.822;2024-03-23T06:54:21;3.28;;;1.95;;
66603;SDS011;53460;39.612;8.822;2024-03-23T06:56:47;2.00;;;1.67;;
66603;SDS011;53460;39.612;8.822;2024-03-23T06:59:13;3.90;;;1.85;;
66603;SDS011;53460;39.612;8.822;2024-03-23T07:01:38;4.65;;;1.63;;
66603;SDS011;53460;39.612;8.822;2024-03-23T07:04:04;4.40;;;1.88;;
66603;SDS011;53460;39.612;8.822;2024-03-23T07:06:30;2.38;;;1.60;;
66603;SDS011;53460;39.612;8.822;2024-03-23T07:08:56;4.28;;;1.92;;
66603;SDS011;53460;39.612;8.822;2024-03-23T07:11:22;3.22;;;1.63;;
66603;SDS011;53460;39.612;8.822;2024-03-23T07:13:51;3.65;;;1.48;;
66603;SDS011;53460;39.612;8.822;2024-03-23T07:16:19;2.45;;;1.48;;
66603;SDS011;53460;39.612;8.822;2024-03-23T07:18:45;4.63;;;1.48;;
66603;SDS011;53460;39.612;8.822;2024-03-23T07:21:11;2.83;;;1.50;;
66603;SDS011;53460;39.612;8.822;2024-03-23T07:23:37;2.83;;;1.70;;
66603;SDS011;53460;39.612;8.822;2024-03-23T07:26:03;1.83;;;1.42;;
66603;SDS011;53460;39.612;8.822;2024-03-23T07:28:30;3.33;;;1.50;;
66603;SDS011;53460;39.612;8.822;2024-03-23T07:31:03;1.63;;;1.15;;
66603;SDS011;53460;39.612;8.822;2024-03-23T07:33:36;2.35;;;1.20;;
66603;SDS011;53460;39.612;8.822;2024-03-23T07:36:03;6.75;;;1.63;;
66603;SDS011;53460;39.612;8.822;2024-03-23T07:38:31;2.67;;;1.70;;
66603;SDS011;53460;39.612;8.822;2024-03-23T07:43:28;5.32;;;1.30;;
66603;SDS011;53460;39.612;8.822;2024-03-23T07:45:54;2.60;;;1.25;;
66603;SDS011;53460;39.612;8.822;2024-03-23T07:48:21;1.92;;;1.38;;
66603;SDS011;53460;39.612;8.822;2024-03-23T07:50:56;3.25;;;1.50;;
66603;SDS011;53460;39.612;8.822;2024-03-23T07:53:25;2.90;;;1.60;;
66603;SDS011;53460;39.612;8.822;2024-03-23T07:55:58;6.00;;;1.90;;
66603;SDS011;53460;39.612;8.822;2024-03-23T07:58:27;2.13;;;1.35;;
66603;SDS011;53460;39.612;8.822;2024-03-23T08:00:53;2.63;;;1.52;;
66603;SDS011;53460;39.612;8.822;2024-03-23T08:03:20;2.83;;;1.42;;
66603;SDS011;53460;39.612;8.822;2024-03-23T08:05:46;4.60;;;1.70;;
66603;SDS011;53460;39.612;8.822;2024-03-23T08:08:12;2.53;;;1.45;;
66603;SDS011;53460;39.612;8.822;2024-03-23T08:10:46;6.30;;;1.65;;
66603;SDS011;53460;39.612;8.822;2024-03-23T08:13:13;2.00;;;1.58;;
66603;SDS011;53460;39.612;8.822;2024-03-23T08:15:38;3.92;;;2.03;;
66603;SDS011;53460;39.612;8.822;2024-03-23T08:18:04;8.00;;;1.92;;
66603;SDS011;53460;39.612;8.822;2024-03-23T08:20:30;5.13;;;1.80;;
66603;SDS011;53460;39.612;8.822;2024-03-23T08:22:55;3.20;;;2.05;;
66603;SDS011;53460;39.612;8.822;2024-03-23T08:25:21;5.60;;;2.25;;
66603;SDS011;53460;39.612;8.822;2024-03-23T08:27:47;4.25;;;1.98;;
66603;SDS011;53460;39.612;8.822;2024-03-23T08:30:13;4.15;;;1.90;;
66603;SDS011;53460;39.612;8.822;2024-03-23T08:32:38;5.32;;;2.33;;
66603;SDS011;53460;39.612;8.822;2024-03-23T08:35:04;3.60;;;2.17;;
66603;SDS011;53460;39.612;8.822;2024-03-23T08:37:30;3.08;;;2.10;;
66603;SDS011;53460;39.612;8.822;2024-03-23T08:39:56;3.53;;;2.38;;
66603;SDS011;53460;39.612;8.822;2024-03-23T08:42:22;1.83;;;1.58;;
66603;SDS011;53460;39.612;8.822;2024-03-23T08:44:47;4.10;;;2.05;;
66603;SDS011;53460;39.612;8.822;2024-03-23T08:47:15;5.05;;;1.60;;
66603;SDS011;53460;39.612;8.822;2024-03-23T08:49:41;4.22;;;1.85;;
66603;SDS011;53460;39.612;8.822;2024-03-23T08:52:07;2.53;;;1.80;;
66603;SDS011;53460;39.612;8.822;2024-03-23T08:54:33;3.17;;;1.52;;
66603;SDS011;53460;39.612;8.822;2024-03-23T08:56:59;2.53;;;1.42;;
66603;SDS011;53460;39.612;8.822;2024-03-23T08:59:25;1.80;;;1.35;;
66603;SDS011;53460;39.612;8.822;2024-03-23T09:01:51;2.80;;;1.75;;
66603;SDS011;53460;39.612;8.822;2024-03-23T09:04:16;1.60;;;1.20;;
66603;SDS011;53460;39.612;8.822;2024-03-23T09:06:42;5.45;;;1.58;;
66603;SDS011;53460;39.612;8.822;2024-03-23T09:09:08;5.50;;;2.15;;
66603;SDS011;53460;39.612;8.822;2024-03-23T09:11:34;4.13;;;1.30;;
66603;SDS011;53460;39.612;8.822;2024-03-23T09:13:59;4.07;;;1.58;;
66603;SDS011;53460;39.612;8.822;2024-03-23T09:16:25;4.10;;;1.50;;
66603;SDS011;53460;39.612;8.822;2024-03-23T09:18:51;3.03;;;1.65;;
66603;SDS011;53460;39.612;8.822;2024-03-23T09:21:17;2.90;;;1.20;;
66603;SDS011;53460;39.612;8.822;2024-03-23T09:23:43;1.75;;;1.20;;
66603;SDS011;53460;39.612;8.822;2024-03-23T09:26:10;3.00;;;1.52;;
66603;SDS011;53460;39.612;8.822;2024-03-23T09:28:36;4.05;;;1.60;;
66603;SDS011;53460;39.612;8.822;2024-03-23T09:31:02;2.47;;;1.70;;
66603;SDS011;53460;39.612;8.822;2024-03-23T09:33:32;4.43;;;1.80;;
66603;SDS011;53460;39.612;8.822;2024-03-23T09:36:02;4.22;;;1.27;;
66603;SDS011;53460;39.612;8.822;2024-03-23T09:38:28;3.50;;;1.40;;
66603;SDS011;53460;39.612;8.822;2024-03-23T09:40:54;2.65;;;1.60;;
66603;SDS011;53460;39.612;8.822;2024-03-23T09:43:20;1.77;;;1.52;;
66603;SDS011;53460;39.612;8.822;2024-03-23T09:45:45;2.75;;;1.70;;
66603;SDS011;53460;39.612;8.822;2024-03-23T09:48:12;1.90;;;1.42;;
66603;SDS011;53460;39.612;8.822;2024-03-23T09:50:41;2.38;;;1.52;;
66603;SDS011;53460;39.612;8.822;2024-03-23T09:53:08;7.53;;;1.80;;
66603;SDS011;53460;39.612;8.822;2024-03-23T09:55:37;3.03;;;1.70;;
66603;SDS011;53460;39.612;8.822;2024-03-23T09:58:04;3.67;;;1.83;;
66603;SDS011;53460;39.612;8.822;2024-03-23T10:00:33;2.47;;;2.13;;
66603;SDS011;53460;39.612;8.822;2024-03-23T10:03:01;2.80;;;1.98;;
66603;SDS011;53460;39.612;8.822;2024-03-23T10:05:30;1.60;;;1.40;;
66603;SDS011;53460;39.612;8.822;2024-03-23T10:08:23;3.80;;;1.80;;
66603;SDS011;53460;39.612;8.822;2024-03-23T10:10:47;2.85;;;1.67;;
66603;SDS011;53460;39.612;8.822;2024-03-23T10:13:26;3.40;;;1.75;;
66603;SDS011;53460;39.612;8.822;2024-03-23T10:15:55;2.05;;;1.33;;
66603;SDS011;53460;39.612;8.822;2024-03-23T10:18:22;4.35;;;1.67;;
66603;SDS011;53460;39.612;8.822;2024-03-23T10:20:53;6.65;;;2.00;;
66603;SDS011;53460;39.612;8.822;2024-03-23T10:23:41;4.07;;;1.77;;
66603;SDS011;53460;39.612;8.822;2024-03-23T10:26:24;3.35;;;1.85;;
66603;SDS011;53460;39.612;8.822;2024-03-23T10:28:57;3.38;;;2.10;;
66603;SDS011;53460;39.612;8.822;2024-03-23T10:31:33;2.75;;;1.90;;
66603;SDS011;53460;39.612;8.822;2024-03-23T10:34:00;5.78;;;1.75;;
66603;SDS011;53460;39.612;8.822;2024-03-23T10:36:27;6.20;;;1.67;;
66603;SDS011;53460;39.612;8.822;2024-03-23T10:38:55;4.40;;;2.17;;
66603;SDS011;53460;39.612;8.822;2024-03-23T10:41:25;3.53;;;1.60;;
66603;SDS011;53460;39.612;8.822;2024-03-23T10:43:53;4.68;;;2.08;;
66603;SDS011;53460;39.612;8.822;2024-03-23T10:46:21;2.92;;;1.88;;
66603;SDS011;53460;39.612;8.822;2024-03-23T10:48:47;2.15;;;1.85;;
66603;SDS011;53460;39.612;8.822;2024-03-23T10:51:12;4.57;;;1.45;;
66603;SDS011;53460;39.612;8.822;2024-03-23T10:53:39;3.55;;;2.03;;
66603;SDS011;53460;39.612;8.822;2024-03-23T10:56:07;6.43;;;2.00;;
66603;SDS011;53460;39.612;8.822;2024-03-23T10:58:42;4.47;;;1.70;;
66603;SDS011;53460;39.612;8.822;2024-03-23T11:01:11;2.60;;;1.73;;
66603;SDS011;53460;39.612;8.822;2024-03-23T11:03:39;5.57;;;1.52;;
66603;SDS011;53460;39.612;8.822;2024-03-23T11:06:10;2.88;;;1.10;;
66603;SDS011;53460;39.612;8.822;2024-03-23T11:09:03;1.35;;;0.90;;
66603;SDS011;53460;39.612;8.822;2024-03-23T11:11:29;2.53;;;1.10;;
66603;SDS011;53460;39.612;8.822;2024-03-23T11:13:57;2.13;;;1.27;;
66603;SDS011;53460;39.612;8.822;2024-03-23T11:16:26;1.85;;;1.30;;
66603;SDS011;53460;39.612;8.822;2024-03-23T11:22:04;5.00;;;1.35;;
66603;SDS011;53460;39.612;8.822;2024-03-23T11:24:31;1.73;;;1.08;;
66603;SDS011;53460;39.612;8.822;2024-03-23T11:26:57;2.55;;;1.33;;
66603;SDS011;53460;39.612;8.822;2024-03-23T11:29:29;1.58;;;1.33;;
66603;SDS011;53460;39.612;8.822;2024-03-23T11:31:55;2.45;;;1.33;;
66603;SDS011;53460;39.612;8.822;2024-03-23T11:34:21;2.97;;;1.35;;
66603;SDS011;53460;39.612;8.822;2024-03-23T11:36:48;1.90;;;1.20;;
66603;SDS011;53460;39.612;8.822;2024-03-23T11:39:18;2.90;;;1.20;;
66603;SDS011;53460;39.612;8.822;2024-03-23T11:41:55;1.75;;;1.30;;
66603;SDS011;53460;39.612;8.822;2024-03-23T11:44:25;2.00;;;1.13;;
66603;SDS011;53460;39.612;8.822;2024-03-23T11:46:52;2.53;;;1.48;;
66603;SDS011;53460;39.612;8.822;2024-03-23T11:49:25;2.70;;;0.98;;
66603;SDS011;53460;39.612;8.822;2024-03-23T11:51:55;2.53;;;1.55;;
66603;SDS011;53460;39.612;8.822;2024-03-23T11:54:25;1.85;;;1.00;;
66603;SDS011;53460;39.612;8.822;2024-03-23T11:56:58;2.45;;;0.95;;
66603;SDS011;53460;39.612;8.822;2024-03-23T11:59:35;3.35;;;2.17;;
66603;SDS011;53460;39.612;8.822;2024-03-23T12:04:39;1.38;;;1.00;;
66603;SDS011;53460;39.612;8.822;2024-03-23T12:07:11;3.00;;;1.30;;
66603;SDS011;53460;39.612;8.822;2024-03-23T12:09:39;2.00;;;1.52;;
66603;SDS011;53460;39.612;8.822;2024-03-23T12:12:09;2.00;;;1.20;;
66603;SDS011;53460;39.612;8.822;2024-03-23T12:17:32;3.40;;;0.98;;
66603;SDS011;53460;39.612;8.822;2024-03-23T12:19:58;2.28;;;1.00;;
66603;SDS011;53460;39.612;8.822;2024-03-23T12:22:24;3.63;;;1.20;;
66603;SDS011;53460;39.612;8.822;2024-03-23T12:24:50;3.38;;;1.33;;
66603;SDS011;53460;39.612;8.822;2024-03-23T12:27:15;5.30;;;1.40;;
66603;SDS011;53460;39.612;8.822;2024-03-23T12:29:41;2.92;;;1.23;;
66603;SDS011;53460;39.612;8.822;2024-03-23T12:32:08;1.40;;;1.10;;
66603;SDS011;53460;39.612;8.822;2024-03-23T12:34:34;1.17;;;1.00;;
66603;SDS011;53460;39.612;8.822;2024-03-23T12:37:00;1.83;;;1.00;;
66603;SDS011;53460;39.612;8.822;2024-03-23T12:39:26;1.63;;;1.00;;
66603;SDS011;53460;39.612;8.822;2024-03-23T12:41:52;5.18;;;1.45;;
66603;SDS011;53460;39.612;8.822;2024-03-23T12:44:18;3.75;;;1.30;;
66603;SDS011;53460;39.612;8.822;2024-03-23T12:46:44;4.50;;;1.23;;
66603;SDS011;53460;39.612;8.822;2024-03-23T12:49:13;2.55;;;1.40;;
66603;SDS011;53460;39.612;8.822;2024-03-23T12:51:38;3.35;;;1.52;;
66603;SDS011;53460;39.612;8.822;2024-03-23T12:54:04;3.42;;;1.23;;
66603;SDS011;53460;39.612;8.822;2024-03-23T12:56:30;3.17;;;1.20;;
66603;SDS011;53460;39.612;8.822;2024-03-23T12:58:56;3.55;;;1.30;;
66603;SDS011;53460;39.612;8.822;2024-03-23T13:01:25;2.78;;;1.30;;
66603;SDS011;53460;39.612;8.822;2024-03-23T13:03:51;2.78;;;1.27;;
66603;SDS011;53460;39.612;8.822;2024-03-23T13:06:17;2.10;;;1.30;;
66603;SDS011;53460;39.612;8.822;2024-03-23T13:08:47;1.85;;;1.00;;
66603;SDS011;53460;39.612;8.822;2024-03-23T13:11:15;3.83;;;1.30;;
66603;SDS011;53460;39.612;8.822;2024-03-23T13:13:41;1.58;;;0.93;;
66603;SDS011;53460;39.612;8.822;2024-03-23T13:16:07;2.67;;;1.05;;
66603;SDS011;53460;39.612;8.822;2024-03-23T13:18:33;3.63;;;1.00;;
66603;SDS011;53460;39.612;8.822;2024-03-23T13:20:59;1.90;;;0.98;;
66603;SDS011;53460;39.612;8.822;2024-03-23T13:23:25;1.10;;;1.00;;
66603;SDS011;53460;39.612;8.822;2024-03-23T13:25:51;2.42;;;1.10;;
66603;SDS011;53460;39.612;8.822;2024-03-23T13:28:20;2.47;;;1.00;;
66603;SDS011;53460;39.612;8.822;2024-03-23T13:30:51;1.00;;;0.90;;
66603;SDS011;53460;39.612;8.822;2024-03-23T13:33:17;2.67;;;1.20;;
66603;SDS011;53460;39.612;8.822;2024-03-23T13:36:03;1.80;;;1.15;;
66603;SDS011;53460;39.612;8.822;2024-03-23T13:38:28;0.90;;;0.80;;
66603;SDS011;53460;39.612;8.822;2024-03-23T13:40:58;2.42;;;1.15;;
66603;SDS011;53460;39.612;8.822;2024-03-23T13:43:26;3.05;;;1.10;;
66603;SDS011;53460;39.612;8.822;2024-03-23T13:45:55;2.22;;;1.02;;
66603;SDS011;53460;39.612;8.822;2024-03-23T13:48:23;1.52;;;1.20;;
66603;SDS011;53460;39.612;8.822;2024-03-23T13:50:59;1.55;;;1.05;;
66603;SDS011;53460;39.612;8.822;2024-03-23T13:53:25;2.50;;;1.35;;
66603;SDS011;53460;39.612;8.822;2024-03-23T13:55:51;2.65;;;1.23;;
66603;SDS011;53460;39.612;8.822;2024-03-23T13:58:17;4.60;;;1.52;;
66603;SDS011;53460;39.612;8.822;2024-03-23T14:00:43;3.22;;;1.17;;
66603;SDS011;53460;39.612;8.822;2024-03-23T14:03:09;2.00;;;0.95;;
66603;SDS011;53460;39.612;8.822;2024-03-23T14:05:35;4.18;;;0.95;;
66603;SDS011;53460;39.612;8.822;2024-03-23T14:08:04;1.20;;;1.10;;
66603;SDS011;53460;39.612;8.822;2024-03-23T14:10:30;1.85;;;1.25;;
66603;SDS011;53460;39.612;8.822;2024-03-23T14:12:56;2.22;;;1.20;;
66603;SDS011;53460;39.612;8.822;2024-03-23T14:15:21;1.30;;;1.17;;
66603;SDS011;53460;39.612;8.822;2024-03-23T14:17:47;4.43;;;1.23;;
66603;SDS011;53460;39.612;8.822;2024-03-23T14:20:13;3.97;;;1.70;;
66603;SDS011;53460;39.612;8.822;2024-03-23T14:22:38;3.25;;;1.40;;
66603;SDS011;53460;39.612;8.822;2024-03-23T14:25:06;3.78;;;1.52;;
66603;SDS011;53460;39.612;8.822;2024-03-23T14:27:32;7.25;;;1.80;;
66603;SDS011;53460;39.612;8.822;2024-03-23T14:30:05;2.75;;;1.33;;
66603;SDS011;53460;39.612;8.822;2024-03-23T14:32:31;2.65;;;1.45;;
66603;SDS011;53460;39.612;8.822;2024-03-23T14:35:00;1.35;;;1.25;;
66603;SDS011;53460;39.612;8.822;2024-03-23T14:37:26;3.45;;;1.50;;
66603;SDS011;53460;39.612;8.822;2024-03-23T14:39:52;3.22;;;1.48;;
66603;SDS011;53460;39.612;8.822;2024-03-23T14:42:18;2.50;;;1.23;;
66603;SDS011;53460;39.612;8.822;2024-03-23T14:44:43;2.47;;;1.40;;
66603;SDS011;53460;39.612;8.822;2024-03-23T14:47:09;2.05;;;1.45;;
66603;SDS011;53460;39.612;8.822;2024-03-23T14:49:36;2.65;;;1.63;;
66603;SDS011;53460;39.612;8.822;2024-03-23T14:52:01;5.22;;;1.45;;
66603;SDS011;53460;39.612;8.822;2024-03-23T14:54:27;2.40;;;1.35;;
66603;SDS011;53460;39.612;8.822;2024-03-23T14:56:53;1.98;;;1.30;;
66603;SDS011;53460;39.612;8.822;2024-03-23T14:59:18;2.33;;;1.38;;
66603;SDS011;53460;39.612;8.822;2024-03-23T15:01:45;1.83;;;1.10;;
66603;SDS011;53460;39.612;8.822;2024-03-23T15:04:10;3.70;;;1.52;;
66603;SDS011;53460;39.612;8.822;2024-03-23T15:06:36;3.33;;;1.40;;
66603;SDS011;53460;39.612;8.822;2024-03-23T15:09:02;2.15;;;1.60;;
66603;SDS011;53460;39.612;8.822;2024-03-23T15:11:34;2.35;;;1.58;;
66603;SDS011;53460;39.612;8.822;2024-03-23T15:14:00;2.85;;;1.20;;
66603;SDS011;53460;39.612;8.822;2024-03-23T15:16:26;2.47;;;1.55;;
66603;SDS011;53460;39.612;8.822;2024-03-23T15:18:51;2.80;;;1.63;;
66603;SDS011;53460;39.612;8.822;2024-03-23T15:21:17;1.75;;;1.10;;
66603;SDS011;53460;39.612;8.822;2024-03-23T15:23:46;2.13;;;1.17;;
66603;SDS011;53460;39.612;8.822;2024-03-23T15:26:12;4.43;;;1.33;;
66603;SDS011;53460;39.612;8.822;2024-03-23T15:28:37;3.10;;;1.23;;
66603;SDS011;53460;39.612;8.822;2024-03-23T15:31:04;5.03;;;2.00;;
66603;SDS011;53460;39.612;8.822;2024-03-23T15:33:30;3.15;;;1.40;;
66603;SDS011;53460;39.612;8.822;2024-03-23T15:36:02;2.95;;;1.42;;
66603;SDS011;53460;39.612;8.822;2024-03-23T15:38:28;2.17;;;1.27;;
66603;SDS011;53460;39.612;8.822;2024-03-23T15:40:54;3.50;;;1.42;;
66603;SDS011;53460;39.612;8.822;2024-03-23T15:43:20;5.95;;;2.40;;
66603;SDS011;53460;39.612;8.822;2024-03-23T15:45:55;3.25;;;1.85;;
66603;SDS011;53460;39.612;8.822;2024-03-23T15:48:22;2.70;;;1.52;;
66603;SDS011;53460;39.612;8.822;2024-03-23T15:50:51;2.10;;;1.67;;
66603;SDS011;53460;39.612;8.822;2024-03-23T15:53:18;2.85;;;1.40;;